createdAt,value
2023-05-16T00:00:54.558Z,101175.19
2023-05-16T00:05:56.845Z,101178.84
2023-05-16T00:10:58.846Z,101191.25
2023-05-16T00:16:02.823Z,101183.22
2023-05-16T00:21:05.198Z,101184.88
2023-05-16T00:26:07.127Z,101190.41
2023-05-16T00:31:08.879Z,101183.34
2023-05-16T00:36:10.845Z,101194.06
2023-05-16T00:41:12.754Z,101195.66
2023-05-16T00:46:14.738Z,101194.91
2023-05-16T00:51:17.954Z,101199.50
2023-05-16T00:56:21.762Z,101202.09
2023-05-16T01:01:25.288Z,101209.22
2023-05-16T01:06:27.238Z,101205.78
2023-05-16T01:11:37.316Z,101202.38
2023-05-16T01:17:05.514Z,101197.97
2023-05-16T01:22:16.644Z,101203.09
2023-05-16T01:27:19.173Z,101208.59
2023-05-16T01:32:23.086Z,101198.72
2023-05-16T01:37:31.949Z,101212.78
2023-05-16T01:42:37.417Z,101217.47
2023-05-16T01:47:45.291Z,101219.38
2023-05-16T01:52:56.260Z,101215.75
2023-05-16T01:58:00.032Z,101221.28
2023-05-16T02:03:01.920Z,101225.41
2023-05-16T02:08:04.664Z,101225.41
2023-05-16T02:13:06.633Z,101235.22
2023-05-16T02:18:09.660Z,101242.41
2023-05-16T02:23:11.721Z,101243.53
2023-05-16T02:28:13.559Z,101243.53
2023-05-16T02:33:15.375Z,101256.06
2023-05-16T02:38:17.801Z,101256.06
2023-05-16T02:43:19.604Z,101263.34
2023-05-16T02:48:21.421Z,101272.13
2023-05-16T02:53:23.178Z,101270.22
2023-05-16T02:58:24.978Z,101282.84
2023-05-16T03:03:27.034Z,101280.44
2023-05-16T03:08:28.887Z,101285.59
2023-05-16T03:13:31.443Z,101292.69
2023-05-16T03:18:33.510Z,101290.03
2023-05-16T03:23:35.388Z,101294.53
2023-05-16T03:28:37.610Z,101293.47
2023-05-16T03:33:39.494Z,101294.41
2023-05-16T03:38:41.370Z,101297.38
2023-05-16T03:43:43.189Z,101300.81
2023-05-16T03:48:45.205Z,101311.72
2023-05-16T03:53:46.963Z,101320.59
2023-05-16T03:58:48.948Z,101322.41
2023-05-16T04:03:51.263Z,101329.69
2023-05-16T04:08:53.130Z,101334.06
2023-05-16T04:13:55.145Z,101340.38
2023-05-16T04:18:57.308Z,101347.44
2023-05-16T04:23:59.392Z,101356.44
2023-05-16T04:29:01.491Z,101359.13
2023-05-16T04:34:03.824Z,101361.97
2023-05-16T04:39:06.526Z,101361.03
2023-05-16T04:44:09.045Z,101367.22
2023-05-16T04:49:11.588Z,101372.66
2023-05-16T04:54:13.502Z,101380.69
2023-05-16T04:59:15.448Z,101383.19
2023-05-16T05:04:17.980Z,101389.69
2023-05-16T05:09:19.884Z,101394.06
2023-05-16T05:14:22.015Z,101402.19
2023-05-16T05:19:23.913Z,101412.03
2023-05-16T05:24:25.911Z,101412.03
2023-05-16T05:29:27.853Z,101412.09
2023-05-16T05:34:29.670Z,101414.63
2023-05-16T05:39:31.499Z,101415.56
2023-05-16T05:44:33.863Z,101420.25
2023-05-16T05:49:36.216Z,101433.53
2023-05-16T05:54:38.096Z,101425.34
2023-05-16T05:59:40.161Z,101435.19
2023-05-16T06:04:43.096Z,101433.34
2023-05-16T06:09:45.066Z,101443.00
2023-05-16T06:14:47.275Z,101450.88
2023-05-16T06:19:49.149Z,101449.47
2023-05-16T06:24:51.083Z,101454.84
2023-05-16T06:29:52.967Z,101463.97
2023-05-16T06:34:54.821Z,101462.41
2023-05-16T06:39:56.688Z,101460.09
2023-05-16T06:44:58.669Z,101456.75
2023-05-16T06:50:00.580Z,101469.16
2023-05-16T06:55:02.538Z,101469.78
2023-05-16T07:00:05.086Z,101463.59
2023-05-16T07:05:07.462Z,101464.25
2023-05-16T07:10:09.710Z,101467.09
2023-05-16T07:15:11.807Z,101469.41
2023-05-16T07:20:15.056Z,101472.94
2023-05-16T07:25:17.556Z,101474.06
2023-05-16T07:30:19.580Z,101474.97
2023-05-16T07:35:21.556Z,101485.69
2023-05-16T07:40:28.543Z,101478.09
2023-05-16T07:45:30.649Z,101476.97
2023-05-16T07:50:32.706Z,101486.06
2023-05-16T07:55:35.733Z,101486.69
2023-05-16T08:00:37.658Z,101489.28
2023-05-16T08:05:40.224Z,101477.19
2023-05-16T08:10:42.232Z,101476.09
2023-05-16T08:15:44.237Z,101492.47
2023-05-16T08:20:46.292Z,101478.38
2023-05-16T08:25:48.246Z,101484.97
2023-05-16T08:30:50.357Z,101483.59
2023-05-16T08:35:55.435Z,101483.94
2023-05-16T08:40:57.435Z,101482.03
2023-05-16T08:45:59.825Z,101481.97
2023-05-16T08:51:03.612Z,101481.47
2023-05-16T08:56:07.761Z,101481.53
2023-05-16T09:01:10.369Z,101478.25
2023-05-16T09:06:12.280Z,101485.63
2023-05-16T09:11:14.248Z,101474.56
2023-05-16T09:16:19.932Z,101485.28
2023-05-16T09:21:21.908Z,101494.25
2023-05-16T09:26:23.928Z,101486.03
2023-05-16T09:31:28.059Z,101494.31
2023-05-16T09:36:32.246Z,101490.50
2023-05-16T09:41:35.783Z,101493.66
2023-05-16T09:46:38.922Z,101486.44
2023-05-16T09:51:41.649Z,101484.13
2023-05-16T09:56:50.979Z,101493.47
2023-05-16T10:01:53.600Z,101488.03
2023-05-16T10:06:59.128Z,101490.97
2023-05-16T10:12:08.629Z,101490.88
2023-05-16T10:17:14.619Z,101492.88
2023-05-16T10:22:18.172Z,101486.75
2023-05-16T10:27:21.401Z,101485.78
2023-05-16T10:32:25.866Z,101495.91
2023-05-16T10:37:28.641Z,101482.84
2023-05-16T10:42:32.688Z,101475.28
2023-05-16T10:47:34.648Z,101475.06
2023-05-16T10:52:36.639Z,101469.91
2023-05-16T10:57:38.852Z,101462.53
2023-05-16T11:02:42.421Z,101460.75
2023-05-16T11:07:45.009Z,101455.41
2023-05-16T11:12:50.216Z,101452.88
2023-05-16T11:18:05.352Z,101460.16
2023-05-16T11:23:22.435Z,101462.81
2023-05-16T11:28:27.010Z,101463.03
2023-05-16T11:33:34.559Z,101459.56
2023-05-16T11:38:37.381Z,101462.25
2023-05-16T11:43:43.808Z,101463.09
2023-05-16T11:48:47.688Z,101473.81
2023-05-16T11:53:50.391Z,101470.44
2023-05-16T11:58:52.877Z,101469.50
2023-05-16T12:03:59.707Z,101471.31
2023-05-16T12:09:10.177Z,101477.63
2023-05-16T12:14:13.566Z,101478.66
2023-05-16T12:19:16.098Z,101476.91
2023-05-16T12:24:18.063Z,101474.25
2023-05-16T12:29:22.006Z,101472.44
2023-05-16T12:34:24.577Z,101476.91
2023-05-16T12:39:26.554Z,101475.78
2023-05-16T12:44:30.577Z,101469.84
2023-05-16T12:49:33.754Z,101476.06
2023-05-16T12:54:35.721Z,101473.59
2023-05-16T12:59:37.658Z,101484.94
2023-05-16T13:04:39.628Z,101473.47
2023-05-16T13:09:42.083Z,101472.53
2023-05-16T13:14:45.424Z,101475.47
2023-05-16T13:19:48.948Z,101463.53
2023-05-16T13:24:51.006Z,101474.84
2023-05-16T13:29:52.941Z,101469.50
2023-05-16T13:34:55.422Z,101476.75
2023-05-16T13:39:57.527Z,101475.91
2023-05-16T13:44:59.467Z,101486.78
2023-05-16T13:50:08.114Z,101481.50
2023-05-16T13:55:10.404Z,101489.53
2023-05-16T14:05:17.753Z,101499.72
2023-05-16T14:10:19.702Z,101490.06
2023-05-16T14:15:21.796Z,101499.84
2023-05-16T14:20:23.879Z,101517.81
2023-05-16T14:25:26.083Z,101517.09
2023-05-16T14:30:28.387Z,101518.72
2023-05-16T14:35:31.423Z,101517.19
2023-05-16T14:40:34.537Z,101527.81
2023-05-16T14:45:40.291Z,101526.94
2023-05-16T14:50:42.352Z,101531.25
2023-05-16T14:55:45.015Z,101532.63
2023-05-16T15:00:47.017Z,101536.28
2023-05-16T15:05:48.986Z,101544.38
2023-05-16T15:10:51.160Z,101538.31
2023-05-16T15:15:53.460Z,101549.38
2023-05-16T15:20:55.495Z,101532.25
2023-05-16T15:25:57.542Z,101542.00
2023-05-16T15:30:59.469Z,101535.72
2023-05-16T15:36:01.942Z,101536.56
2023-05-16T15:46:15.809Z,101562.09
2023-05-16T15:51:17.920Z,101557.59
2023-05-16T15:56:19.869Z,101557.31
2023-05-16T16:01:21.948Z,101563.53
2023-05-16T16:06:23.869Z,101562.69
2023-05-16T16:11:27.194Z,101567.44
2023-05-16T16:16:29.145Z,101569.16
2023-05-16T16:21:31.572Z,101570.41
2023-05-16T16:26:33.549Z,101573.25
2023-05-16T16:31:35.791Z,101570.75
2023-05-16T16:36:37.915Z,101573.34
2023-05-16T16:41:39.906Z,101574.34
2023-05-16T16:46:41.913Z,101568.78
2023-05-16T16:51:43.818Z,101574.97
2023-05-16T16:56:47.005Z,101574.13
2023-05-16T17:01:49.647Z,101570.50
2023-05-16T17:06:51.742Z,101577.22
2023-05-16T17:11:53.725Z,101580.28
2023-05-16T17:16:55.644Z,101591.00
2023-05-16T17:21:57.453Z,101589.69
2023-05-16T17:26:59.359Z,101588.50
2023-05-16T17:32:01.421Z,101596.13
2023-05-16T17:37:05.509Z,101598.81
2023-05-16T17:42:09.481Z,101603.13
2023-05-16T17:47:11.742Z,101601.22
2023-05-16T17:52:13.788Z,101609.25
2023-05-16T17:57:15.924Z,101603.97
2023-05-16T18:02:28.618Z,101609.41
2023-05-16T18:07:30.520Z,101615.44
2023-05-16T18:12:32.507Z,101613.56
2023-05-16T18:17:34.897Z,101615.38
2023-05-16T18:22:37.567Z,101609.78
2023-05-16T18:27:39.696Z,101612.16
2023-05-16T18:32:41.930Z,101619.22
2023-05-16T18:37:44.598Z,101628.88
2023-05-16T18:42:46.577Z,101628.19
2023-05-16T18:47:48.702Z,101629.91
2023-05-16T18:52:50.731Z,101629.91
2023-05-16T18:57:52.765Z,101628.19
2023-05-16T19:02:54.623Z,101634.41
2023-05-16T19:07:56.884Z,101641.69
2023-05-16T19:13:03.322Z,101645.19
2023-05-16T19:18:06.655Z,101644.25
2023-05-16T19:23:08.742Z,101653.22
2023-05-16T19:28:11.003Z,101644.56
2023-05-16T19:33:13.053Z,101653.31
2023-05-16T19:38:14.989Z,101659.75
2023-05-16T19:43:17.070Z,101647.88
2023-05-16T19:48:19.064Z,101664.94
2023-05-16T19:53:22.518Z,101676.59
2023-05-16T19:58:24.444Z,101673.84
2023-05-16T20:03:26.830Z,101681.31
2023-05-16T20:08:29.064Z,101682.88
2023-05-16T20:13:32.393Z,101690.97
2023-05-16T20:18:34.501Z,101694.44
2023-05-16T20:23:38.408Z,101693.50
2023-05-16T20:28:40.678Z,101697.38
2023-05-16T20:33:42.747Z,101699.91
2023-05-16T20:38:44.772Z,101703.56
2023-05-16T20:43:47.145Z,101708.16
2023-05-16T20:48:49.044Z,101711.47
2023-05-16T20:53:51.109Z,101713.66
2023-05-16T20:58:52.971Z,101716.59
2023-05-16T21:03:55.004Z,101730.06
2023-05-16T21:08:57.087Z,101725.63
2023-05-16T21:13:59.709Z,101734.75
2023-05-16T21:19:04.649Z,101727.88
2023-05-16T21:24:06.973Z,101729.72
2023-05-16T21:29:08.929Z,101728.31
2023-05-16T21:34:11.604Z,101729.88
2023-05-16T21:39:13.592Z,101732.41
2023-05-16T21:44:17.520Z,101743.00
2023-05-16T21:49:19.433Z,101746.66
2023-05-16T21:54:21.320Z,101749.00
2023-05-16T21:59:23.673Z,101749.00
2023-05-16T22:04:25.643Z,101747.34
2023-05-16T22:09:27.890Z,101756.16
2023-05-16T22:14:29.974Z,101765.91
2023-05-16T22:19:32.001Z,101758.84
2023-05-16T22:24:33.908Z,101753.41
2023-05-16T22:29:38.556Z,101757.81
2023-05-16T22:34:40.731Z,101759.47
2023-05-16T22:39:42.547Z,101769.06
2023-05-16T22:44:44.543Z,101770.34
2023-05-16T22:49:46.391Z,101773.00
2023-05-16T22:54:48.516Z,101780.88
2023-05-16T22:59:50.434Z,101775.75
2023-05-16T23:04:52.690Z,101773.00
2023-05-16T23:09:54.747Z,101778.50
2023-05-16T23:14:58.369Z,101777.56
2023-05-16T23:20:00.466Z,101778.25
2023-05-16T23:25:02.565Z,101785.34
2023-05-16T23:30:04.939Z,101783.72
2023-05-16T23:35:07.301Z,101784.63
2023-05-16T23:40:09.818Z,101781.09
2023-05-16T23:45:12.073Z,101789.19
2023-05-16T23:50:15.736Z,101791.03
2023-05-16T23:55:17.737Z,101789.13
